Victoria International Airport
CYYJ : now visible

Airfield :











YOU CAN JOIN US ON...

 
LOGIN :

Register | Disclaimer

   EN    FR    IT 

 









Legend :    VFR   Marginal VFR   IFR   Intensive IFR   Very Intensive IFR
Visi :
Ceiling :
>= 8 km
>= 3000ft
5 to 8 km
1000 to 3000 ft
1500m to 5 km
500 to 1000 ft
800 to 1500m
200 to 500 ft
< 800m
< 200 ft
Symbols :   Thunderstorms  Fog  Heavy snow  Heavy precipitations  Wind > 20 kt






- Airport Elevation : 63 ft
- IATA code : YYJ


CYYJ - Victoria International

CURRENT METAR :
  • 062000Z 03004KT 20SM FEW017 SCT090 BKN110 08/08 A2989 RMK SC1AC4AC3 SC TR SLP122

EXPIRED METARs :
  • 061900Z 00000KT 20SM FEW065 SCT078 BKN100 BKN220 07/07 A2991 RMK SC1AC3AC2CI2 SC TR SLP130
  • 061800Z 31003KT 310V050 20SM -RA BKN064 BKN080 07/07 A2992 RMK SC5AC2 SLP134

TAF TAF CYYJ
Valid from the 06 at 18:00 until the 07 at 18:00 UTC


061738Z 0618/0718 28005KT P6SM FEW025 BKN060
TEMPO 0618/0703 P6SM -RA
BECMG 0621/0623 VRB03KT
FM070300 26005KT P6SM -RA SCT030 BKN060
TEMPO 0703/0709 6SM -SHRA SCT015 OVC030
FM070900 26005KT 5SM -RA BR BKN015 OVC030
TEMPO 0709/0718 P6SM NSW SCT015 BKN030 RMK NXT FCST BY 070000Z



MET'MAP, your aeronautical weather chart ! - Copyright ORBIFLY December 2007 - Disclaimer

ORBIFLY MET'MAP TEAM :

Programming & Development : Alexandra Zaïnal
Concept & original design : Baudouin d'Aumeries
Assistance for programming : Marc-Olivier Méhu
Technical & hardware support : Manuel Goepfert

Contact : metmap@orbifly.com




SOURCES & CREDITS :

   NOAA       Earth
Advisory